createdAt,value
2023-05-22T03:29:52.963Z,100.00
2023-05-22T03:32:21.664Z,100.00
2023-05-22T03:34:53.102Z,100.00
2023-05-22T03:37:20.252Z,100.00
2023-05-22T03:39:48.337Z,100.00
2023-05-22T03:42:27.978Z,100.00
2023-05-22T03:44:57.210Z,100.00
2023-05-22T03:47:27.167Z,100.00
2023-05-22T03:49:55.632Z,100.00
2023-05-22T03:52:25.799Z,100.00
2023-05-22T03:54:54.021Z,100.00
2023-05-22T03:57:21.407Z,100.00
2023-05-22T03:59:50.231Z,100.00
2023-05-22T04:02:18.446Z,100.00
2023-05-22T04:04:48.707Z,100.00
2023-05-22T04:07:18.692Z,100.00
2023-05-22T04:09:46.859Z,100.00
2023-05-22T04:12:14.357Z,100.00
2023-05-22T04:14:43.459Z,100.00
2023-05-22T04:17:12.027Z,100.00
2023-05-22T04:19:39.521Z,100.00
2023-05-22T04:22:07.547Z,100.00
2023-05-22T04:24:36.777Z,100.00
2023-05-22T04:27:04.519Z,100.00
2023-05-22T04:29:33.252Z,100.00
2023-05-22T04:32:02.722Z,100.00
2023-05-22T04:34:30.914Z,100.00
2023-05-22T04:36:58.452Z,100.00
2023-05-22T04:39:26.947Z,100.00
2023-05-22T04:41:55.462Z,100.00
2023-05-22T04:44:24.014Z,100.00
2023-05-22T04:46:53.088Z,100.00
2023-05-22T04:49:20.882Z,100.00
2023-05-22T04:51:49.097Z,100.00
2023-05-22T04:54:17.439Z,100.00
2023-05-22T04:56:45.593Z,100.00
2023-05-22T04:59:16.646Z,100.00
2023-05-22T05:01:48.306Z,100.00
2023-05-22T05:04:16.654Z,100.00
2023-05-22T05:06:45.668Z,100.00
2023-05-22T05:09:13.457Z,100.00
2023-05-22T05:11:40.916Z,100.00
2023-05-22T05:14:09.626Z,100.00
2023-05-22T05:16:37.469Z,100.00
2023-05-22T05:19:04.659Z,100.00
2023-05-22T05:21:32.347Z,100.00
2023-05-22T05:24:03.294Z,100.00
2023-05-22T05:26:31.286Z,100.00
2023-05-22T05:29:00.149Z,100.00
2023-05-22T05:31:37.167Z,100.00
2023-05-22T05:34:14.775Z,100.00
2023-05-22T05:37:06.549Z,100.00
2023-05-22T05:39:33.890Z,100.00
2023-05-22T05:42:04.539Z,100.00
2023-05-22T05:44:32.400Z,100.00
2023-05-22T05:47:01.503Z,100.00
2023-05-22T05:49:29.577Z,100.00
2023-05-22T05:51:57.558Z,100.00
2023-05-22T05:54:28.273Z,100.00
2023-05-22T05:57:00.648Z,100.00
2023-05-22T05:59:30.028Z,100.00
2023-05-22T06:02:15.855Z,100.00
2023-05-22T06:04:48.885Z,100.00
2023-05-22T06:07:20.115Z,100.00
2023-05-22T06:09:51.968Z,100.00
2023-05-22T06:12:38.416Z,100.00
2023-05-22T06:15:09.210Z,100.00
2023-05-22T06:17:38.503Z,100.00
2023-05-22T06:20:07.407Z,100.00
2023-05-22T06:22:38.443Z,100.00
2023-05-22T06:25:07.227Z,100.00
2023-05-22T06:27:36.308Z,100.00
2023-05-22T06:30:04.955Z,100.00
2023-05-22T06:32:35.752Z,100.00
2023-05-22T06:35:04.668Z,100.00
2023-05-22T06:37:36.046Z,100.00
2023-05-22T06:40:04.517Z,100.00
2023-05-22T06:42:39.721Z,100.00
2023-05-22T06:45:22.958Z,100.00
2023-05-22T06:48:09.661Z,100.00
2023-05-22T06:50:41.253Z,100.00
2023-05-22T06:53:09.135Z,100.00
2023-05-22T06:55:37.001Z,100.00
2023-05-22T06:58:11.761Z,100.00
2023-05-22T07:00:40.423Z,100.00
2023-05-22T07:03:15.662Z,100.00
2023-05-22T07:05:57.858Z,100.00
2023-05-22T07:08:27.794Z,100.00
2023-05-22T07:10:56.986Z,100.00
2023-05-22T07:13:25.163Z,100.00
2023-05-22T07:15:53.298Z,100.00
2023-05-22T07:18:21.756Z,100.00
2023-05-22T07:20:50.022Z,100.00
2023-05-22T07:23:20.777Z,100.00
2023-05-22T07:25:51.940Z,100.00
2023-05-22T07:28:21.352Z,100.00
2023-05-22T07:30:57.312Z,100.00
2023-05-22T07:33:26.785Z,100.00
2023-05-22T07:35:55.441Z,100.00
2023-05-22T07:38:23.403Z,100.00
2023-05-22T07:40:57.614Z,100.00
2023-05-22T07:43:26.966Z,100.00
2023-05-22T07:45:55.658Z,100.00
2023-05-22T07:48:29.792Z,100.00
2023-05-22T07:50:57.340Z,100.00
2023-05-22T07:53:25.636Z,100.00
2023-05-22T07:55:55.802Z,100.00
2023-05-22T07:58:24.402Z,100.00
2023-05-22T08:00:53.375Z,100.00
2023-05-22T08:03:23.797Z,100.00
2023-05-22T08:05:51.621Z,100.00
2023-05-22T08:08:19.491Z,100.00
2023-05-22T08:11:03.243Z,96.02
2023-05-22T08:13:33.589Z,95.76
2023-05-22T08:16:01.747Z,99.24
2023-05-22T08:18:30.236Z,100.00
2023-05-22T08:20:58.135Z,100.00
2023-05-22T08:23:25.470Z,100.00
2023-05-22T08:25:59.042Z,100.00
2023-05-22T08:28:29.716Z,95.78
2023-05-22T08:30:59.705Z,97.87
2023-05-22T08:33:27.181Z,98.33
2023-05-22T08:35:55.222Z,94.82
2023-05-22T08:38:22.701Z,93.56
2023-05-22T08:40:50.880Z,93.74
2023-05-22T08:43:21.301Z,93.42
2023-05-22T08:46:00.296Z,90.23
2023-05-22T08:48:31.109Z,85.62
2023-05-22T08:51:04.500Z,85.35
2023-05-22T08:53:36.821Z,84.69
2023-05-22T08:56:06.249Z,78.97
2023-05-22T08:58:35.766Z,76.92
2023-05-22T09:01:03.836Z,77.61
2023-05-22T09:03:35.495Z,77.41
2023-05-22T09:06:04.107Z,75.28
2023-05-22T09:08:31.740Z,75.47
2023-05-22T09:11:00.170Z,76.81
2023-05-22T09:13:29.315Z,77.18
2023-05-22T09:16:01.320Z,75.79
2023-05-22T09:18:30.797Z,74.10
2023-05-22T09:20:59.241Z,71.26
2023-05-22T09:23:28.481Z,69.87
2023-05-22T09:25:57.335Z,69.19
2023-05-22T09:28:25.322Z,67.85
2023-05-22T09:30:53.902Z,68.84
2023-05-22T09:33:22.934Z,69.48
2023-05-22T09:35:54.049Z,66.25
2023-05-22T09:38:30.549Z,62.08
2023-05-22T09:40:58.671Z,63.81
2023-05-22T09:43:27.606Z,64.08
2023-05-22T09:46:01.341Z,62.67
2023-05-22T09:48:29.077Z,63.11
2023-05-22T09:50:57.011Z,61.96
2023-05-22T09:53:28.132Z,61.34
2023-05-22T09:56:00.761Z,58.44
2023-05-22T09:58:31.406Z,58.60
2023-05-22T10:00:58.965Z,60.30
2023-05-22T10:03:28.940Z,60.17
2023-05-22T10:05:57.363Z,58.16
2023-05-22T10:08:34.708Z,58.10
2023-05-22T10:11:07.543Z,58.93
2023-05-22T10:13:36.358Z,60.07
2023-05-22T10:16:08.125Z,60.51
2023-05-22T10:18:35.810Z,61.02
2023-05-22T10:21:04.042Z,60.45
2023-05-22T10:23:31.991Z,59.66
2023-05-22T10:26:01.704Z,57.87
2023-05-22T10:28:33.984Z,57.54
2023-05-22T10:31:05.683Z,55.23
2023-05-22T10:33:55.632Z,52.37
2023-05-22T10:36:27.237Z,51.95
2023-05-22T10:39:33.940Z,53.41
2023-05-22T10:42:01.436Z,55.13
2023-05-22T10:44:31.385Z,56.45
2023-05-22T10:46:59.480Z,57.90
2023-05-22T10:49:29.393Z,60.16
2023-05-22T10:51:58.354Z,61.13
2023-05-22T10:54:43.157Z,61.33
2023-05-22T10:57:11.999Z,62.04
2023-05-22T10:59:39.443Z,61.68
2023-05-22T11:02:37.151Z,60.22
2023-05-22T11:05:22.843Z,63.34
2023-05-22T11:07:51.052Z,64.96
2023-05-22T11:10:28.544Z,66.36
2023-05-22T11:13:14.419Z,67.80
2023-05-22T11:15:45.912Z,67.68
2023-05-22T11:18:14.772Z,67.43
2023-05-22T11:20:43.768Z,66.64
2023-05-22T11:23:11.659Z,65.90
2023-05-22T11:25:40.813Z,65.10
2023-05-22T11:28:08.376Z,65.16
2023-05-22T11:30:36.911Z,63.93
2023-05-22T11:33:05.667Z,59.14
2023-05-22T11:35:35.183Z,55.58
2023-05-22T11:38:09.971Z,54.63
2023-05-22T11:40:38.776Z,55.45
2023-05-22T11:43:08.727Z,55.46
2023-05-22T11:45:40.372Z,55.08
2023-05-22T11:48:08.949Z,54.54
2023-05-22T11:50:42.510Z,52.96
2023-05-22T11:53:11.337Z,53.14
2023-05-22T11:55:39.236Z,52.92
2023-05-22T11:58:07.611Z,53.84
2023-05-22T12:00:35.581Z,55.99
2023-05-22T12:03:03.504Z,57.93
2023-05-22T12:05:34.546Z,57.75
2023-05-22T12:08:03.560Z,58.03
2023-05-22T12:10:32.234Z,59.97
2023-05-22T12:13:00.428Z,60.33
2023-05-22T12:15:28.900Z,61.28
2023-05-22T12:17:57.278Z,61.82
2023-05-22T12:20:31.212Z,63.13
2023-05-22T12:23:00.170Z,64.48
2023-05-22T12:25:34.272Z,65.28
2023-05-22T12:28:04.189Z,66.84
2023-05-22T12:30:41.303Z,67.13
2023-05-22T12:33:14.700Z,67.40
2023-05-22T12:35:42.931Z,68.27
2023-05-22T12:38:11.779Z,68.78
2023-05-22T12:40:39.948Z,69.00
2023-05-22T12:43:08.169Z,68.46
2023-05-22T12:45:36.785Z,68.83
2023-05-22T12:48:05.414Z,68.55
2023-05-22T12:50:33.329Z,68.83
2023-05-22T12:53:04.471Z,69.03
2023-05-22T12:55:33.509Z,69.86
2023-05-22T12:58:02.140Z,71.18
2023-05-22T13:00:31.118Z,72.54
2023-05-22T13:03:00.895Z,74.20
2023-05-22T13:05:29.872Z,75.96
2023-05-22T13:07:58.506Z,76.04
2023-05-22T13:10:28.155Z,74.56
2023-05-22T13:12:59.068Z,73.98
2023-05-22T13:15:29.736Z,74.25
2023-05-22T13:17:59.623Z,74.32
2023-05-22T13:20:29.341Z,75.40
2023-05-22T13:22:58.902Z,76.88
2023-05-22T13:25:35.625Z,78.34
2023-05-22T13:28:04.025Z,79.50
2023-05-22T13:30:33.493Z,80.84
2023-05-22T13:33:02.500Z,81.82
2023-05-22T13:35:30.810Z,82.40
2023-05-22T13:37:58.557Z,82.55
2023-05-22T13:40:26.690Z,82.70
2023-05-22T13:42:55.131Z,82.76
2023-05-22T13:45:24.261Z,83.26
2023-05-22T13:47:52.234Z,83.54
2023-05-22T13:50:20.100Z,83.58
2023-05-22T13:52:48.074Z,84.16
2023-05-22T13:55:16.758Z,84.77
2023-05-22T13:57:44.490Z,85.10
2023-05-22T14:00:13.604Z,85.51
2023-05-22T14:02:43.804Z,85.01
2023-05-22T14:05:12.327Z,84.60
2023-05-22T14:07:40.426Z,85.09
2023-05-22T14:10:08.931Z,85.60
2023-05-22T14:12:37.519Z,85.58
2023-05-22T14:15:06.533Z,85.96
2023-05-22T14:17:36.915Z,85.90
2023-05-22T14:20:05.882Z,85.72
2023-05-22T14:22:41.386Z,86.12
2023-05-22T14:25:13.851Z,85.96
2023-05-22T14:27:42.427Z,85.60
2023-05-22T14:30:13.835Z,85.30
2023-05-22T14:32:44.190Z,85.61
2023-05-22T14:35:12.898Z,85.72
2023-05-22T14:37:41.602Z,86.05
2023-05-22T14:40:12.797Z,86.54
2023-05-22T14:42:40.960Z,86.71
2023-05-22T14:45:09.556Z,87.15
2023-05-22T14:47:37.828Z,87.12
2023-05-22T14:52:42.307Z,87.77
2023-05-22T14:55:10.430Z,87.94
2023-05-22T14:57:38.076Z,87.95
2023-05-22T15:00:09.233Z,88.41
2023-05-22T15:02:37.790Z,88.05
2023-05-22T15:05:07.380Z,87.95
2023-05-22T15:07:44.059Z,87.41
2023-05-22T15:10:14.668Z,85.96
2023-05-22T15:12:44.205Z,85.15
2023-05-22T15:15:12.740Z,85.53
2023-05-22T15:17:42.893Z,84.14
2023-05-22T15:20:11.477Z,84.41
2023-05-22T15:22:40.429Z,82.69
2023-05-22T15:25:12.645Z,80.78
2023-05-22T15:27:40.952Z,79.40
2023-05-22T15:30:12.646Z,77.55
2023-05-22T15:32:40.423Z,77.61
2023-05-22T15:35:10.929Z,77.83
2023-05-22T15:37:41.195Z,78.43
2023-05-22T15:40:17.902Z,78.64
2023-05-22T15:42:46.933Z,78.77
2023-05-22T15:45:14.743Z,78.88
2023-05-22T15:47:43.339Z,78.93
2023-05-22T15:50:11.706Z,78.39
2023-05-22T15:52:40.002Z,78.32
2023-05-22T15:55:08.466Z,78.68
2023-05-22T15:57:37.120Z,78.35
2023-05-22T16:00:06.552Z,78.00
2023-05-22T16:02:35.164Z,75.36
2023-05-22T16:05:03.373Z,73.68
2023-05-22T16:07:31.927Z,73.93
2023-05-22T16:10:00.227Z,73.89
2023-05-22T16:12:28.166Z,74.55
2023-05-22T16:15:00.221Z,74.56
2023-05-22T16:17:29.816Z,74.43
2023-05-22T16:19:57.453Z,74.09
2023-05-22T16:22:33.054Z,73.80
2023-05-22T16:25:08.789Z,74.27
2023-05-22T16:27:37.488Z,74.42
2023-05-22T16:30:05.688Z,74.86
2023-05-22T16:32:34.318Z,74.57
2023-05-22T16:35:02.936Z,74.53
2023-05-22T16:37:30.985Z,75.11
2023-05-22T16:39:58.916Z,75.19
2023-05-22T16:42:26.876Z,75.66
2023-05-22T16:44:54.765Z,76.03
2023-05-22T16:47:23.097Z,76.28
2023-05-22T16:49:51.238Z,76.38
2023-05-22T16:52:22.686Z,76.85
2023-05-22T16:54:50.530Z,77.29
2023-05-22T16:57:18.341Z,77.71
2023-05-22T16:59:46.519Z,78.32
2023-05-22T17:02:14.399Z,78.72
2023-05-22T17:04:42.624Z,79.17
2023-05-22T17:07:10.852Z,79.78
2023-05-22T17:09:38.678Z,80.83
2023-05-22T17:12:06.976Z,82.35
2023-05-22T17:14:34.951Z,82.34
2023-05-22T17:17:04.201Z,82.85
2023-05-22T17:19:33.090Z,83.25
2023-05-22T17:22:01.323Z,83.97
2023-05-22T17:24:30.198Z,84.46
2023-05-22T17:26:58.090Z,85.06
2023-05-22T17:29:27.983Z,85.74
2023-05-22T17:31:55.983Z,86.26
2023-05-22T17:34:24.742Z,86.89
2023-05-22T17:36:53.275Z,87.39
2023-05-22T17:39:22.077Z,87.60
2023-05-22T17:41:50.283Z,87.95
2023-05-22T17:44:18.077Z,88.15
2023-05-22T17:46:46.391Z,88.70
2023-05-22T17:49:14.802Z,89.34
2023-05-22T17:51:42.727Z,89.79
2023-05-22T17:54:10.646Z,90.51
2023-05-22T17:56:38.390Z,91.04
2023-05-22T17:59:07.277Z,91.43
2023-05-22T18:01:35.340Z,91.97
2023-05-22T18:04:04.940Z,92.33
2023-05-22T18:06:33.161Z,92.79
2023-05-22T18:09:04.660Z,93.21
2023-05-22T18:11:32.826Z,93.84
2023-05-22T18:14:00.778Z,94.50
2023-05-22T18:16:29.090Z,95.04
2023-05-22T18:18:57.675Z,95.53
2023-05-22T18:21:25.739Z,95.97
2023-05-22T18:23:56.354Z,96.42
2023-05-22T18:26:24.382Z,96.49
2023-05-22T18:28:52.657Z,97.15
2023-05-22T18:31:20.937Z,97.57
2023-05-22T18:33:48.739Z,98.01
2023-05-22T18:36:17.120Z,98.48
2023-05-22T18:38:45.749Z,98.99
2023-05-22T18:41:13.611Z,99.44
2023-05-22T18:43:43.723Z,98.56
2023-05-22T18:46:11.565Z,99.92
2023-05-22T18:48:39.490Z,100.00
2023-05-22T18:51:07.992Z,100.00
2023-05-22T18:53:36.061Z,100.00
2023-05-22T18:56:03.982Z,100.00
2023-05-22T18:58:32.026Z,100.00
2023-05-22T19:01:00.022Z,100.00
2023-05-22T19:03:27.911Z,100.00
2023-05-22T19:05:56.194Z,100.00
2023-05-22T19:08:26.774Z,100.00
2023-05-22T19:10:57.746Z,99.98
2023-05-22T19:15:48.587Z,100.00
2023-05-22T19:18:17.805Z,100.00
2023-05-22T19:20:45.975Z,100.00
2023-05-22T19:23:15.964Z,100.00
2023-05-22T19:25:43.942Z,100.00
2023-05-22T19:28:11.676Z,100.00
2023-05-22T19:30:41.893Z,100.00
2023-05-22T19:33:10.863Z,100.00
2023-05-22T19:35:39.052Z,100.00
2023-05-22T19:38:07.126Z,100.00
2023-05-22T19:40:35.698Z,100.00
2023-05-22T19:43:04.063Z,100.00
2023-05-22T19:45:31.839Z,100.00
2023-05-22T19:48:00.153Z,100.00
2023-05-22T19:50:28.218Z,100.00
2023-05-22T19:52:56.466Z,100.00
2023-05-22T19:55:24.835Z,100.00
2023-05-22T19:57:52.660Z,100.00
2023-05-22T20:00:21.327Z,100.00
2023-05-22T20:02:50.241Z,100.00
2023-05-22T20:05:19.307Z,100.00
2023-05-22T20:07:48.771Z,100.00
2023-05-22T20:10:16.750Z,100.00
2023-05-22T20:12:44.996Z,100.00
2023-05-22T20:15:15.225Z,100.00
2023-05-22T20:17:47.813Z,100.00
2023-05-22T20:20:15.886Z,100.00
2023-05-22T20:22:43.960Z,100.00
2023-05-22T20:25:13.336Z,100.00
2023-05-22T20:27:41.018Z,100.00
2023-05-22T20:30:12.286Z,100.00
2023-05-22T20:32:42.871Z,100.00
2023-05-22T20:35:11.167Z,100.00
2023-05-22T20:37:42.019Z,100.00
2023-05-22T20:40:10.915Z,100.00
2023-05-22T20:42:39.487Z,100.00
2023-05-22T20:45:07.906Z,100.00
2023-05-22T20:47:36.945Z,100.00
2023-05-22T20:50:06.923Z,100.00
2023-05-22T20:52:37.484Z,100.00
2023-05-22T20:55:05.651Z,100.00
2023-05-22T21:00:58.823Z,100.00
2023-05-22T21:03:27.674Z,100.00
2023-05-22T21:05:55.661Z,100.00
2023-05-22T21:08:23.537Z,100.00
2023-05-22T21:10:51.876Z,100.00
2023-05-22T21:13:20.304Z,100.00
2023-05-22T21:15:48.517Z,100.00
2023-05-22T21:18:16.240Z,100.00
2023-05-22T21:20:44.087Z,100.00
2023-05-22T21:23:12.209Z,100.00
2023-05-22T21:25:40.565Z,100.00
2023-05-22T21:28:09.018Z,100.00
2023-05-22T21:30:37.134Z,100.00
2023-05-22T21:33:05.952Z,100.00
2023-05-22T21:35:34.166Z,100.00
2023-05-22T21:38:03.014Z,100.00
2023-05-22T21:40:31.889Z,100.00
2023-05-22T21:43:00.002Z,100.00
2023-05-22T21:45:28.097Z,100.00
2023-05-22T21:47:56.371Z,100.00
2023-05-22T21:50:24.815Z,100.00
2023-05-22T21:52:53.312Z,100.00
2023-05-22T21:55:21.646Z,100.00
2023-05-22T21:57:50.427Z,100.00
2023-05-22T22:00:19.170Z,100.00
2023-05-22T22:02:46.907Z,100.00
2023-05-22T22:05:14.960Z,100.00
2023-05-22T22:07:43.528Z,100.00
2023-05-22T22:10:11.928Z,100.00
2023-05-22T22:12:39.579Z,100.00
2023-05-22T22:15:08.277Z,100.00
2023-05-22T22:17:36.357Z,100.00
2023-05-22T22:20:06.000Z,100.00
2023-05-22T22:22:33.692Z,100.00
2023-05-22T22:25:01.972Z,100.00
2023-05-22T22:27:29.938Z,100.00
2023-05-22T22:29:57.776Z,100.00
2023-05-22T22:32:25.888Z,100.00
2023-05-22T22:34:55.424Z,100.00
2023-05-22T22:37:23.245Z,100.00
2023-05-22T22:39:51.153Z,100.00
2023-05-22T22:42:19.023Z,100.00
2023-05-22T22:44:47.239Z,100.00
2023-05-22T22:47:14.999Z,100.00
2023-05-22T22:49:43.289Z,100.00
2023-05-22T22:52:11.134Z,100.00
2023-05-22T22:54:39.641Z,100.00
2023-05-22T22:57:08.095Z,100.00
2023-05-22T22:59:38.632Z,100.00
2023-05-22T23:02:06.537Z,100.00
2023-05-22T23:04:34.490Z,100.00
2023-05-22T23:07:03.345Z,100.00
2023-05-22T23:09:31.531Z,100.00
2023-05-22T23:11:59.841Z,100.00
2023-05-22T23:14:28.525Z,100.00
2023-05-22T23:16:56.683Z,100.00
2023-05-22T23:19:24.552Z,100.00
2023-05-22T23:21:52.227Z,100.00
2023-05-22T23:24:19.995Z,100.00
2023-05-22T23:26:48.335Z,100.00
2023-05-22T23:29:16.829Z,100.00
2023-05-22T23:31:44.716Z,100.00
2023-05-22T23:34:12.439Z,100.00
2023-05-22T23:36:40.580Z,100.00
2023-05-22T23:39:08.763Z,100.00
2023-05-22T23:41:36.523Z,100.00
2023-05-22T23:44:04.577Z,100.00
2023-05-22T23:46:33.242Z,100.00
2023-05-22T23:49:01.374Z,100.00
2023-05-22T23:51:29.098Z,100.00
2023-05-22T23:53:56.699Z,100.00
2023-05-22T23:56:24.553Z,100.00
2023-05-22T23:58:52.358Z,100.00
